Time;durP1;ratioP1;P1;durP2;ratioP2;P2;SDS_P1;SDS_P2;PMS_P1;PMS_P2;Temp;Humidity;BMP_temperature;BMP_pressure;BME280_temperature;BME280_humidity;BME280_pressure;Samples;Min_cycle;Max_cycle;Signal;HPM_P1;HPM_P2
2023/04/25 00:01:14;;;;;;;16.73;5.73;;;;;;;;;;5004842;28;20042;-78
2023/04/25 00:03:42;;;;;;;18.60;5.57;;;;;;;;;;5020574;28;20050;-76
2023/04/25 00:06:13;;;;;;;21.40;6.27;;;;;;;;;;5004052;28;20090;-76
2023/04/25 00:08:42;;;;;;;19.03;5.73;;;;;;;;;;5010344;28;20034;-76
2023/04/25 00:11:13;;;;;;;24.30;7.40;;;;;;;;;;5011515;28;20033;-75
2023/04/25 00:13:41;;;;;;;;;;;;;;;;;;5024024;28;20087;-76
2023/04/25 00:16:07;;;;;;;18.97;5.37;;;;;;;;;;5005348;28;19937;-77
2023/04/25 00:18:34;;;;;;;20.17;6.93;;;;;;;;;;5016237;28;20029;-77
2023/04/25 00:21:00;;;;;;;21.13;6.67;;;;;;;;;;5006731;28;20128;-76
2023/04/25 00:23:36;;;;;;;27.13;6.00;;;;;;;;;;5002582;28;20090;-76
2023/04/25 00:26:05;;;;;;;25.53;7.10;;;;;;;;;;5008583;28;20098;-76
2023/04/25 00:28:33;;;;;;;17.40;6.00;;;;;;;;;;5007295;28;20017;-76
2023/04/25 00:30:59;;;;;;;24.63;6.53;;;;;;;;;;5004168;28;20034;-76
2023/04/25 00:33:28;;;;;;;19.23;6.37;;;;;;;;;;5019346;28;20031;-76
2023/04/25 00:35:54;;;;;;;24.23;7.10;;;;;;;;;;5003561;28;20034;-77
2023/04/25 00:38:20;;;;;;;14.77;5.77;;;;;;;;;;5020380;28;20026;-77
2023/04/25 00:40:46;;;;;;;32.97;8.30;;;;;;;;;;5020910;28;20090;-76
2023/04/25 00:43:14;;;;;;;26.17;6.63;;;;;;;;;;5001981;28;20053;-77
2023/04/25 00:45:41;;;;;;;24.73;6.80;;;;;;;;;;5000290;28;20026;-76
2023/04/25 00:48:07;;;;;;;31.57;8.80;;;;;;;;;;5008518;28;20035;-77
2023/04/25 00:50:36;;;;;;;18.33;6.73;;;;;;;;;;5001896;28;20049;-77
2023/04/25 00:53:03;;;;;;;21.23;6.93;;;;;;;;;;5004945;28;20014;-77
2023/04/25 00:55:29;;;;;;;34.60;7.17;;;;;;;;;;5021030;28;20062;-77
2023/04/25 00:57:55;;;;;;;21.87;6.47;;;;;;;;;;5000548;28;20027;-77
2023/04/25 01:00:21;;;;;;;24.60;7.27;;;;;;;;;;5014099;28;20030;-77
2023/04/25 01:02:47;;;;;;;18.77;7.73;;;;;;;;;;5022042;28;20066;-77
2023/04/25 01:05:16;;;;;;;28.33;7.73;;;;;;;;;;5003221;28;20031;-77
2023/04/25 01:07:42;;;;;;;25.20;8.07;;;;;;;;;;4999696;28;20026;-77
2023/04/25 01:10:09;;;;;;;22.53;7.53;;;;;;;;;;5015715;28;20058;-77
2023/04/25 01:12:35;;;;;;;27.57;8.13;;;;;;;;;;5009320;28;20027;-77
2023/04/25 01:15:01;;;;;;;24.10;7.93;;;;;;;;;;5016213;28;20125;-78
2023/04/25 01:17:27;;;;;;;22.70;7.60;;;;;;;;;;5004943;28;20033;-77
2023/04/25 01:19:58;;;;;;;31.63;8.03;;;;;;;;;;5010559;28;20038;-77
2023/04/25 01:22:26;;;;;;;26.53;8.03;;;;;;;;;;5003157;28;20034;-77
2023/04/25 01:24:52;;;;;;;22.53;7.27;;;;;;;;;;5003970;28;20026;-77
2023/04/25 01:27:20;;;;;;;31.50;7.33;;;;;;;;;;5018028;28;20030;-77
2023/04/25 01:29:46;;;;;;;23.87;7.13;;;;;;;;;;5008196;28;20027;-77
2023/04/25 01:32:17;;;;;;;23.10;7.73;;;;;;;;;;5004661;28;20026;-76
2023/04/25 01:34:45;;;;;;;32.47;9.37;;;;;;;;;;5002883;28;20155;-77
2023/04/25 01:37:11;;;;;;;28.13;7.80;;;;;;;;;;5008320;28;20039;-76
2023/04/25 01:39:40;;;;;;;22.67;7.37;;;;;;;;;;5002458;28;20054;-77
2023/04/25 01:42:06;;;;;;;27.90;8.93;;;;;;;;;;5004698;28;20050;-76
2023/04/25 01:44:34;;;;;;;25.33;8.63;;;;;;;;;;5020600;28;20098;-76
2023/04/25 01:47:03;;;;;;;25.47;8.60;;;;;;;;;;5002445;28;20061;-76
2023/04/25 01:49:29;;;;;;;22.27;7.83;;;;;;;;;;4999563;28;20043;-76
2023/04/25 01:51:57;;;;;;;32.67;7.23;;;;;;;;;;5007318;28;20044;-76
2023/04/25 01:54:23;;;;;;;26.13;8.87;;;;;;;;;;5000630;28;20046;-76
2023/04/25 01:56:52;;;;;;;27.50;7.70;;;;;;;;;;5002239;28;20661;-77
2023/04/25 01:59:27;;;;;;;28.70;7.93;;;;;;;;;;5007179;28;20015;-76
2023/04/25 02:01:53;;;;;;;24.63;7.00;;;;;;;;;;5007392;28;20043;-77
2023/04/25 02:04:21;;;;;;;26.10;7.67;;;;;;;;;;5012383;28;20065;-76
2023/04/25 02:06:50;;;;;;;23.43;7.83;;;;;;;;;;4999756;28;20023;-76
2023/04/25 02:09:16;;;;;;;24.73;8.50;;;;;;;;;;5007464;28;20091;-76
2023/04/25 02:11:42;;;;;;;39.07;10.77;;;;;;;;;;4999291;28;20018;-76
2023/04/25 02:14:08;;;;;;;30.33;9.83;;;;;;;;;;5006487;28;20031;-76
2023/04/25 02:16:39;;;;;;;26.53;7.40;;;;;;;;;;5017053;28;20041;-76
2023/04/25 02:19:06;;;;;;;17.23;6.55;;;;;;;;;;5011657;28;20026;-76
2023/04/25 02:21:32;;;;;;;19.70;6.23;;;;;;;;;;5000087;28;20037;-77
2023/04/25 02:24:00;;;;;;;28.90;8.03;;;;;;;;;;5010209;28;20106;-76
2023/04/25 02:26:26;;;;;;;24.27;7.20;;;;;;;;;;5013691;28;20046;-77
2023/04/25 02:28:52;;;;;;;25.90;8.80;;;;;;;;;;5006122;28;20226;-76
2023/04/25 02:31:24;;;;;;;23.00;6.97;;;;;;;;;;5018413;28;20029;-77
2023/04/25 02:33:50;;;;;;;20.67;6.53;;;;;;;;;;5001425;28;20041;-78
2023/04/25 02:36:16;;;;;;;21.43;6.80;;;;;;;;;;5006645;28;20023;-78
2023/04/25 02:38:44;;;;;;;18.17;6.33;;;;;;;;;;5000694;28;20045;-78
2023/04/25 02:41:13;;;;;;;26.37;7.27;;;;;;;;;;5017366;28;20019;-78
2023/04/25 02:43:46;;;;;;;24.43;6.90;;;;;;;;;;5005615;28;20046;-78
2023/04/25 02:46:12;;;;;;;28.03;7.73;;;;;;;;;;4999691;28;20030;-75
2023/04/25 02:48:43;;;;;;;27.23;7.47;;;;;;;;;;5017196;28;20049;-76
2023/04/25 02:51:09;;;;;;;26.80;6.87;;;;;;;;;;5001615;28;20078;-78
2023/04/25 02:53:37;;;;;;;16.33;5.80;;;;;;;;;;5017068;28;20023;-78
2023/04/25 02:56:03;;;;;;;26.77;7.20;;;;;;;;;;4999879;28;20086;-76
2023/04/25 02:58:32;;;;;;;19.07;7.13;;;;;;;;;;5009506;28;20054;-77
2023/04/25 03:00:58;;;;;;;20.90;6.90;;;;;;;;;;5016906;28;20030;-77
2023/04/25 03:03:31;;;;;;;22.90;7.23;;;;;;;;;;4997269;28;20030;-76
2023/04/25 03:05:57;;;;;;;32.30;7.90;;;;;;;;;;5006182;28;20018;-77
2023/04/25 03:08:25;;;;;;;22.77;7.33;;;;;;;;;;5006138;28;20083;-77
2023/04/25 03:10:52;;;;;;;25.37;6.93;;;;;;;;;;5002833;28;20026;-77
2023/04/25 03:13:29;;;;;;;26.93;6.97;;;;;;;;;;5012927;28;20060;-77
2023/04/25 03:15:55;;;;;;;18.13;7.13;;;;;;;;;;5006207;28;20026;-77
2023/04/25 03:18:24;;;;;;;26.80;8.33;;;;;;;;;;4996569;28;20026;-77
2023/04/25 03:20:50;;;;;;;21.40;7.13;;;;;;;;;;5001014;28;20133;-77
2023/04/25 03:23:16;;;;;;;23.27;7.57;;;;;;;;;;5006778;28;20058;-77
2023/04/25 03:25:42;;;;;;;26.83;7.80;;;;;;;;;;5006696;28;20033;-77
2023/04/25 03:28:08;;;;;;;27.70;6.97;;;;;;;;;;5003718;28;20041;-77
2023/04/25 03:30:37;;;;;;;24.30;7.73;;;;;;;;;;4999633;28;20022;-77
2023/04/25 03:33:03;;;;;;;20.30;7.70;;;;;;;;;;5013611;28;20023;-77
2023/04/25 03:35:29;;;;;;;19.20;6.17;;;;;;;;;;5013981;28;20022;-77
2023/04/25 03:37:57;;;;;;;19.17;7.37;;;;;;;;;;5009225;28;20010;-77
2023/04/25 03:40:26;;;;;;;22.37;8.07;;;;;;;;;;5001349;28;20140;-77
2023/04/25 03:42:52;;;;;;;19.80;7.70;;;;;;;;;;5012698;28;20034;-77
2023/04/25 03:45:21;;;;;;;18.93;7.93;;;;;;;;;;5012345;28;20147;-77
2023/04/25 03:47:47;;;;;;;27.87;8.00;;;;;;;;;;5016632;28;20023;-76
2023/04/25 03:50:13;;;;;;;28.40;8.20;;;;;;;;;;5012008;28;20035;-76
2023/04/25 03:52:44;;;;;;;19.73;7.07;;;;;;;;;;4999876;28;21293;-76
2023/04/25 03:55:10;;;;;;;21.80;6.83;;;;;;;;;;4998776;28;20066;-76
2023/04/25 03:57:39;;;;;;;22.03;7.33;;;;;;;;;;5016655;28;20026;-77
2023/04/25 04:00:07;;;;;;;22.20;6.83;;;;;;;;;;4998722;28;20030;-75
2023/04/25 04:02:36;;;;;;;22.10;7.37;;;;;;;;;;5001160;28;20035;-76
2023/04/25 04:05:06;;;;;;;17.13;7.30;;;;;;;;;;5016572;28;20015;-77
2023/04/25 04:07:55;;;;;;;23.93;7.80;;;;;;;;;;5000347;28;20019;-76
2023/04/25 04:10:24;;;;;;;20.83;7.43;;;;;;;;;;4999953;28;20090;-77
2023/04/25 04:12:52;;;;;;;21.97;7.70;;;;;;;;;;4997407;28;20037;-77
2023/04/25 04:15:18;;;;;;;22.27;6.10;;;;;;;;;;5001389;28;20026;-77
2023/04/25 04:17:46;;;;;;;18.50;6.70;;;;;;;;;;4996597;28;20023;-77
2023/04/25 04:20:14;;;;;;;24.07;7.20;;;;;;;;;;5005616;28;20027;-77
2023/04/25 04:22:43;;;;;;;20.47;6.87;;;;;;;;;;5017181;28;20030;-77
2023/04/25 04:25:11;;;;;;;26.87;7.83;;;;;;;;;;5003896;28;20018;-77
2023/04/25 04:27:38;;;;;;;21.90;7.10;;;;;;;;;;5015719;28;20026;-77
2023/04/25 04:30:06;;;;;;;30.17;8.37;;;;;;;;;;4999982;28;20102;-78
2023/04/25 04:32:34;;;;;;;27.73;7.77;;;;;;;;;;5007311;28;20050;-78
2023/04/25 04:35:03;;;;;;;30.70;7.80;;;;;;;;;;4999541;28;20046;-77
2023/04/25 04:37:32;;;;;;;17.97;6.80;;;;;;;;;;5002365;28;20031;-77
2023/04/25 04:40:18;;;;;;;19.07;6.70;;;;;;;;;;5003495;28;20050;-77
2023/04/25 04:42:49;;;;;;;20.27;7.90;;;;;;;;;;5000637;28;20038;-77
2023/04/25 04:45:15;;;;;;;25.17;8.47;;;;;;;;;;5020672;28;20023;-77
2023/04/25 04:47:45;;;;;;;25.27;8.13;;;;;;;;;;5000905;28;20022;-77
2023/04/25 04:50:16;;;;;;;31.33;8.50;;;;;;;;;;5000268;28;20022;-76
2023/04/25 04:52:44;;;;;;;27.07;8.20;;;;;;;;;;5019482;28;20033;-77
2023/04/25 04:55:13;;;;;;;20.23;8.33;;;;;;;;;;5014591;28;20014;-76
2023/04/25 04:57:46;;;;;;;21.10;8.57;;;;;;;;;;5000357;28;20039;-77
2023/04/25 05:00:18;;;;;;;27.27;8.50;;;;;;;;;;5001362;28;20023;-76
2023/04/25 05:02:47;;;;;;;27.30;8.40;;;;;;;;;;5008529;28;20050;-77
2023/04/25 05:05:15;;;;;;;18.43;7.50;;;;;;;;;;5000201;28;20274;-76
2023/04/25 05:07:44;;;;;;;25.47;9.27;;;;;;;;;;5010894;28;20023;-76
2023/04/25 05:10:18;;;;;;;30.37;9.37;;;;;;;;;;5000206;28;20030;-76
2023/04/25 05:12:44;;;;;;;26.73;7.73;;;;;;;;;;5002861;28;20030;-76
2023/04/25 05:15:10;;;;;;;25.30;7.90;;;;;;;;;;5019821;28;20094;-77
2023/04/25 05:17:36;;;;;;;24.27;7.57;;;;;;;;;;5002949;28;21153;-77
2023/04/25 05:20:10;;;;;;;31.80;9.17;;;;;;;;;;5001007;28;20027;-77
2023/04/25 05:22:37;;;;;;;22.77;7.33;;;;;;;;;;5007854;28;20022;-76
2023/04/25 05:25:09;;;;;;;20.67;6.43;;;;;;;;;;5018721;28;20018;-77
2023/04/25 05:27:35;;;;;;;24.67;9.05;;;;;;;;;;5019469;28;20037;-76
2023/04/25 05:30:03;;;;;;;18.80;7.57;;;;;;;;;;4999494;28;20062;-76
2023/04/25 05:32:30;;;;;;;32.33;7.63;;;;;;;;;;5018536;28;20312;-76
2023/04/25 05:34:59;;;;;;;32.40;8.00;;;;;;;;;;5014084;28;20030;-77
2023/04/25 05:37:32;;;;;;;27.53;8.63;;;;;;;;;;5002733;28;20023;-77
2023/04/25 05:39:58;;;;;;;23.70;7.33;;;;;;;;;;5018943;28;20063;-77
2023/04/25 05:42:24;;;;;;;36.00;8.53;;;;;;;;;;5014509;28;20042;-77
2023/04/25 05:45:06;;;;;;;41.47;8.17;;;;;;;;;;5007575;28;20067;-77
2023/04/25 05:47:37;;;;;;;29.43;7.33;;;;;;;;;;5012360;28;20022;-77
2023/04/25 05:50:11;;;;;;;25.67;9.40;;;;;;;;;;5008037;28;20341;-77
2023/04/25 05:52:39;;;;;;;27.37;7.53;;;;;;;;;;4999251;28;20089;-76
2023/04/25 05:55:06;;;;;;;33.97;8.53;;;;;;;;;;5007921;28;20022;-77
2023/04/25 05:57:41;;;;;;;29.27;7.97;;;;;;;;;;4999794;28;20042;-77
2023/04/25 06:00:09;;;;;;;28.40;7.93;;;;;;;;;;4997872;28;20046;-77
2023/04/25 06:02:35;;;;;;;24.73;7.57;;;;;;;;;;5014164;28;20046;-77
2023/04/25 06:05:03;;;;;;;19.53;6.50;;;;;;;;;;5001181;28;20089;-77
2023/04/25 06:07:37;;;;;;;37.10;8.23;;;;;;;;;;5018202;28;20026;-76
2023/04/25 06:10:06;;;;;;;22.73;7.07;;;;;;;;;;5018095;28;20026;-77
2023/04/25 06:12:35;;;;;;;27.13;6.80;;;;;;;;;;5008639;28;20087;-77
2023/04/25 06:15:12;;;;;;;36.67;7.63;;;;;;;;;;5095315;23;21067;-77
2023/04/25 06:20:33;;;;;;;23.53;7.43;;;;;;;;;;5057481;23;20096;-76
2023/04/25 06:23:02;;;;;;;27.70;6.77;;;;;;;;;;5049055;28;20045;-77
2023/04/25 06:25:28;;;;;;;28.87;6.43;;;;;;;;;;5491856;22;20037;-76
2023/04/25 06:27:54;;;;;;;31.53;6.90;;;;;;;;;;5055863;28;20025;-76
2023/04/25 06:30:25;;;;;;;22.00;6.13;;;;;;;;;;5048634;28;20047;-77
2023/04/25 06:32:51;;;;;;;19.00;6.17;;;;;;;;;;5053776;28;20231;-77
2023/04/25 06:35:26;;;;;;;25.13;6.43;;;;;;;;;;5055989;28;20047;-76
2023/04/25 06:37:54;;;;;;;28.50;7.07;;;;;;;;;;5059125;28;20021;-79
2023/04/25 06:40:24;;;;;;;18.77;5.63;;;;;;;;;;5056349;28;20013;-78
2023/04/25 06:42:54;;;;;;;21.53;6.07;;;;;;;;;;5042727;28;20040;-77
2023/04/25 06:45:23;;;;;;;27.80;6.33;;;;;;;;;;5096497;23;20060;-77
2023/04/25 06:47:49;;;;;;;25.77;6.27;;;;;;;;;;5056785;28;20021;-77
2023/04/25 06:50:15;;;;;;;19.50;5.17;;;;;;;;;;5047322;28;20033;-77
2023/04/25 06:52:44;;;;;;;20.97;5.23;;;;;;;;;;5046123;28;20029;-78
2023/04/25 06:55:10;;;;;;;26.33;6.40;;;;;;;;;;5066630;28;20013;-77
2023/04/25 06:57:36;;;;;;;20.90;5.13;;;;;;;;;;5055396;28;20028;-77
2023/04/25 07:00:05;;;;;;;24.27;6.40;;;;;;;;;;5066250;28;20026;-77
2023/04/25 07:02:34;;;;;;;23.20;5.27;;;;;;;;;;5050450;28;20232;-78
2023/04/25 07:05:07;;;;;;;26.17;5.07;;;;;;;;;;5049109;28;20032;-77
2023/04/25 07:07:35;;;;;;;30.57;5.60;;;;;;;;;;5051224;28;20013;-77
2023/04/25 07:10:04;;;;;;;18.50;4.73;;;;;;;;;;5049874;28;20033;-77
2023/04/25 07:12:47;;;;;;;24.67;5.23;;;;;;;;;;5320950;22;20005;31
2023/04/25 07:15:13;;;;;;;20.20;4.27;;;;;;;;;;5042088;28;20034;-77
2023/04/25 07:17:42;;;;;;;29.03;4.93;;;;;;;;;;5045861;28;20025;-77
2023/04/25 07:20:09;;;;;;;26.17;5.03;;;;;;;;;;5061403;28;20044;-77
2023/04/25 07:22:41;;;;;;;30.77;6.00;;;;;;;;;;5060211;28;20063;-77
2023/04/25 07:25:10;;;;;;;14.68;4.05;;;;;;;;;;5060247;28;20025;-76
2023/04/25 07:27:42;;;;;;;23.10;4.87;;;;;;;;;;5261885;23;20068;-77
2023/04/25 07:30:11;;;;;;;14.07;4.32;;;;;;;;;;5041136;28;20021;-77
2023/04/25 07:32:40;;;;;;;16.87;3.80;;;;;;;;;;5047002;28;20026;-77
2023/04/25 07:35:12;;;;;;;19.53;4.77;;;;;;;;;;5040293;28;20017;-77
2023/04/25 07:37:40;;;;;;;19.50;4.82;;;;;;;;;;5046806;28;20025;-77
2023/04/25 07:40:09;;;;;;;20.83;4.77;;;;;;;;;;5038552;28;20029;-77
2023/04/25 07:42:35;;;;;;;20.83;5.27;;;;;;;;;;5038948;28;20064;-77
2023/04/25 07:45:09;;;;;;;17.40;5.30;;;;;;;;;;5047561;28;20504;-77
2023/04/25 07:47:36;;;;;;;17.43;4.23;;;;;;;;;;5038295;28;20548;-76
2023/04/25 07:50:04;;;;;;;14.40;5.00;;;;;;;;;;5046695;28;20056;-76
2023/04/25 07:52:35;;;;;;;15.73;4.23;;;;;;;;;;5038784;28;20040;-76
2023/04/25 07:55:07;;;;;;;13.77;4.57;;;;;;;;;;5046931;28;20021;-76
2023/04/25 07:57:40;;;;;;;15.50;4.13;;;;;;;;;;5038643;28;20017;-77
2023/04/25 08:00:09;;;;;;;12.33;3.67;;;;;;;;;;5038783;28;20038;-77
2023/04/25 08:02:45;;;;;;;25.70;4.63;;;;;;;;;;5038813;28;20043;-76
2023/04/25 08:05:14;;;;;;;24.90;5.50;;;;;;;;;;5038968;28;20033;-76
2023/04/25 08:07:44;;;;;;;14.40;3.57;;;;;;;;;;5038510;28;20040;-76
2023/04/25 08:10:14;;;;;;;14.63;3.73;;;;;;;;;;5039279;28;20030;-77
2023/04/25 08:12:40;;;;;;;24.67;5.40;;;;;;;;;;5054092;28;20041;-76
2023/04/25 08:15:13;;;;;;;19.80;4.67;;;;;;;;;;5046889;28;20408;-78
2023/04/25 08:17:41;;;;;;;;;;;;;;;;;;5042314;28;20034;-76
2023/04/25 08:20:31;;;;;;;17.77;3.27;;;;;;;;;;5050760;28;19909;-77
2023/04/25 08:22:59;;;;;;;15.23;3.33;;;;;;;;;;5051611;28;20034;-76
2023/04/25 08:25:25;;;;;;;13.13;2.97;;;;;;;;;;5044768;28;20010;-76
2023/04/25 08:27:51;;;;;;;46.93;4.67;;;;;;;;;;5052439;28;20092;-77
2023/04/25 08:30:20;;;;;;;17.60;3.80;;;;;;;;;;5045716;28;20029;-77
2023/04/25 08:32:54;;;;;;;17.97;3.53;;;;;;;;;;5042120;28;20028;-77
2023/04/25 08:35:23;;;;;;;12.20;3.57;;;;;;;;;;5042697;28;20028;-78
2023/04/25 08:37:59;;;;;;;16.57;3.43;;;;;;;;;;5042486;28;20030;-77
2023/04/25 08:40:29;;;;;;;16.47;3.10;;;;;;;;;;5051284;28;20100;-79
2023/04/25 08:42:58;;;;;;;16.60;2.57;;;;;;;;;;5042446;28;20057;-78
2023/04/25 08:45:24;;;;;;;9.77;2.73;;;;;;;;;;5043584;28;20029;-76
2023/04/25 08:47:53;;;;;;;15.27;3.17;;;;;;;;;;5043445;28;20017;-77
2023/04/25 08:50:21;;;;;;;14.40;2.90;;;;;;;;;;5046712;28;20029;-76
2023/04/25 08:52:52;;;;;;;16.50;3.10;;;;;;;;;;5043796;28;20022;-77
2023/04/25 08:55:21;;;;;;;14.93;3.67;;;;;;;;;;5041259;28;21106;-77
2023/04/25 08:57:47;;;;;;;16.27;4.97;;;;;;;;;;5042263;28;20025;-77
2023/04/25 09:00:14;;;;;;;12.43;2.80;;;;;;;;;;5117874;22;20037;-79
2023/04/25 09:02:48;;;;;;;22.37;3.67;;;;;;;;;;5068719;28;20049;-77
2023/04/25 09:05:14;;;;;;;13.03;3.33;;;;;;;;;;5043935;28;20041;-76
2023/04/25 09:07:40;;;;;;;14.63;3.17;;;;;;;;;;5051590;28;20033;-76
2023/04/25 09:10:06;;;;;;;19.37;3.27;;;;;;;;;;5050385;28;20080;-78
2023/04/25 09:12:40;;;;;;;13.73;2.40;;;;;;;;;;5053081;28;20096;-78
2023/04/25 09:15:07;;;;;;;15.10;2.80;;;;;;;;;;5051230;28;20103;-78
2023/04/25 09:17:34;;;;;;;15.67;2.73;;;;;;;;;;5049545;28;20025;-79
2023/04/25 09:20:12;;;;;;;8.87;2.47;;;;;;;;;;5052731;28;20063;-78
2023/04/25 09:22:41;;;;;;;11.03;2.30;;;;;;;;;;5052660;28;20032;-78
2023/04/25 09:25:11;;;;;;;11.83;2.60;;;;;;;;;;5050988;28;20025;-78
2023/04/25 09:27:49;;;;;;;10.67;2.50;;;;;;;;;;5050001;28;20052;-78
2023/04/25 09:30:23;;;;;;;14.40;2.60;;;;;;;;;;5049293;28;20092;-78
2023/04/25 09:32:49;;;;;;;11.23;2.87;;;;;;;;;;5051196;28;20047;-79
2023/04/25 09:35:24;;;;;;;13.23;3.20;;;;;;;;;;5069033;28;20039;-79
2023/04/25 09:37:58;;;;;;;14.80;2.47;;;;;;;;;;5069857;28;20024;-79
2023/04/25 09:40:24;;;;;;;11.03;2.07;;;;;;;;;;5053277;28;20029;-79
2023/04/25 09:42:52;;;;;;;13.20;2.10;;;;;;;;;;5047747;28;20047;-79
2023/04/25 09:45:19;;;;;;;11.73;2.53;;;;;;;;;;5071005;28;20748;-78
2023/04/25 09:47:54;;;;;;;10.67;2.33;;;;;;;;;;5050898;28;20031;-80
2023/04/25 09:50:24;;;;;;;10.90;1.97;;;;;;;;;;5071114;28;20021;-78
2023/04/25 09:53:06;;;;;;;16.33;2.57;;;;;;;;;;5053182;28;20112;-78
2023/04/25 09:55:36;;;;;;;14.30;3.42;;;;;;;;;;5054084;28;20108;-80
2023/04/25 09:58:06;;;;;;;11.40;2.20;;;;;;;;;;5050635;28;20053;-79
2023/04/25 10:00:32;;;;;;;11.87;2.60;;;;;;;;;;5048226;28;20013;-81
2023/04/25 10:03:01;;;;;;;10.43;2.57;;;;;;;;;;5068975;28;20060;-78
2023/04/25 10:05:37;;;;;;;10.87;2.30;;;;;;;;;;5050233;28;20055;-77
2023/04/25 10:08:09;;;;;;;9.10;2.80;;;;;;;;;;5052235;28;20065;-79
2023/04/25 10:10:43;;;;;;;15.10;3.22;;;;;;;;;;5054398;28;20024;-79
2023/04/25 10:13:09;;;;;;;12.93;2.73;;;;;;;;;;5048111;28;20025;-78
2023/04/25 10:15:38;;;;;;;9.17;2.07;;;;;;;;;;5050960;28;20048;-79
2023/04/25 10:18:04;;;;;;;14.13;2.70;;;;;;;;;;5070534;28;20035;-79
2023/04/25 10:20:33;;;;;;;10.97;2.30;;;;;;;;;;5048895;28;20029;-80
2023/04/25 10:23:07;;;;;;;11.33;2.40;;;;;;;;;;5051117;28;20061;-79
2023/04/25 10:25:36;;;;;;;9.87;2.17;;;;;;;;;;5067150;28;20028;-77
2023/04/25 10:28:03;;;;;;;6.47;1.87;;;;;;;;;;5046150;28;20051;-79
2023/04/25 10:30:29;;;;;;;12.30;2.80;;;;;;;;;;5047144;28;20035;-77
2023/04/25 10:33:02;;;;;;;14.23;2.60;;;;;;;;;;5069943;28;20028;-78
2023/04/25 10:35:29;;;;;;;25.83;2.88;;;;;;;;;;5069532;28;20038;-77
2023/04/25 10:38:12;;;;;;;13.83;3.23;;;;;;;;;;5051815;28;20053;-76
2023/04/25 10:40:46;;;;;;;6.55;1.70;;;;;;;;;;5071290;28;20040;-78
2023/04/25 10:43:31;;;;;;;9.43;2.30;;;;;;;;;;5070931;28;20032;-78
2023/04/25 10:45:57;;;;;;;12.03;2.47;;;;;;;;;;5051080;28;20017;-77
2023/04/25 10:48:32;;;;;;;13.43;3.27;;;;;;;;;;5049924;28;20063;-78
2023/04/25 10:51:11;;;;;;;12.80;1.90;;;;;;;;;;5045388;28;20032;-79
2023/04/25 10:53:40;;;;;;;9.27;2.30;;;;;;;;;;5049129;28;20037;-78
2023/04/25 10:56:22;;;;;;;10.33;1.93;;;;;;;;;;5067261;28;20024;-77
2023/04/25 10:58:53;;;;;;;11.48;2.25;;;;;;;;;;5049177;28;20036;-79
2023/04/25 11:01:25;;;;;;;6.53;1.70;;;;;;;;;;5049089;28;20036;-80
2023/04/25 11:03:57;;;;;;;8.25;2.13;;;;;;;;;;5051523;28;20036;-77
2023/04/25 11:06:31;;;;;;;10.57;1.63;;;;;;;;;;5069991;28;20051;-77
2023/04/25 11:09:00;;;;;;;6.33;1.90;;;;;;;;;;5069162;28;20625;-78
2023/04/25 11:11:28;;;;;;;9.23;1.93;;;;;;;;;;5050781;28;20017;-77
2023/04/25 11:13:56;;;;;;;8.47;1.80;;;;;;;;;;5048982;28;20021;-77
2023/04/25 11:16:25;;;;;;;23.70;3.50;;;;;;;;;;5049103;28;20235;-80
2023/04/25 11:18:51;;;;;;;10.70;1.40;;;;;;;;;;5052277;28;20032;-77
2023/04/25 11:21:19;;;;;;;9.57;2.00;;;;;;;;;;5069457;28;20014;-78
2023/04/25 11:23:49;;;;;;;10.60;2.13;;;;;;;;;;5052177;28;20040;-78
2023/04/25 11:26:17;;;;;;;14.10;2.13;;;;;;;;;;5058601;28;20032;-78
2023/04/25 11:28:46;;;;;;;7.00;1.80;;;;;;;;;;5067694;28;20017;-77
2023/04/25 11:31:23;;;;;;;7.63;2.17;;;;;;;;;;5068940;28;20036;-75
2023/04/25 11:33:51;;;;;;;12.23;2.17;;;;;;;;;;5046335;28;20021;-75
2023/04/25 11:36:17;;;;;;;8.97;1.67;;;;;;;;;;5051301;28;20024;-76
2023/04/25 11:38:43;;;;;;;14.53;3.03;;;;;;;;;;5046475;28;20036;-80
2023/04/25 11:41:09;;;;;;;8.17;2.10;;;;;;;;;;5035933;28;20029;-79
2023/04/25 11:43:38;;;;;;;9.33;1.57;;;;;;;;;;5037590;28;20112;-80
2023/04/25 11:46:07;;;;;;;8.20;1.47;;;;;;;;;;5067534;28;20033;-80
2023/04/25 11:48:40;;;;;;;6.63;1.70;;;;;;;;;;5053086;28;20016;-77
2023/04/25 11:51:08;;;;;;;5.88;1.80;;;;;;;;;;5053846;28;20033;-78
2023/04/25 11:53:35;;;;;;;6.63;1.50;;;;;;;;;;5070453;28;20101;-78
2023/04/25 11:56:02;;;;;;;4.50;1.67;;;;;;;;;;5069992;28;20357;-80
2023/04/25 11:58:30;;;;;;;5.50;1.53;;;;;;;;;;5054343;28;20108;-82
2023/04/25 12:00:59;;;;;;;9.23;1.40;;;;;;;;;;5056596;28;20029;-81
2023/04/25 12:03:30;;;;;;;16.13;2.50;;;;;;;;;;5073976;28;20072;-80
2023/04/25 12:06:03;;;;;;;6.05;1.48;;;;;;;;;;5054297;28;20036;-79
2023/04/25 12:08:29;;;;;;;5.38;1.02;;;;;;;;;;5056839;28;20033;-80
2023/04/25 12:10:57;;;;;;;3.87;1.40;;;;;;;;;;5052985;28;20025;-78
2023/04/25 12:13:24;;;;;;;5.53;1.43;;;;;;;;;;5053092;28;20167;-78
2023/04/25 12:15:51;;;;;;;7.33;1.70;;;;;;;;;;5055405;28;20033;-78
2023/04/25 12:18:32;;;;;;;9.43;1.90;;;;;;;;;;5057429;28;20025;-78
2023/04/25 12:20:58;;;;;;;4.87;1.30;;;;;;;;;;5054991;28;20064;-79
2023/04/25 12:23:28;;;;;;;5.57;1.40;;;;;;;;;;5051584;28;20044;-77
2023/04/25 12:25:55;;;;;;;6.63;1.70;;;;;;;;;;5056290;28;20053;-78
2023/04/25 12:28:31;;;;;;;5.07;1.37;;;;;;;;;;5056754;28;20089;-79
2023/04/25 12:31:01;;;;;;;6.47;1.67;;;;;;;;;;5072457;28;20049;-79
2023/04/25 12:33:28;;;;;;;7.47;1.83;;;;;;;;;;5051666;28;20037;-79
2023/04/25 12:35:55;;;;;;;10.67;1.80;;;;;;;;;;5057838;28;20028;-78
2023/04/25 12:38:38;;;;;;;7.33;2.00;;;;;;;;;;5055420;28;20047;-78
2023/04/25 12:41:07;;;;;;;4.97;1.35;;;;;;;;;;5055662;28;20029;-77
2023/04/25 12:43:35;;;;;;;6.13;1.37;;;;;;;;;;5053869;28;20044;-81
2023/04/25 12:46:01;;;;;;;5.27;1.37;;;;;;;;;;5052874;28;20036;-80
2023/04/25 12:48:45;;;;;;;8.13;1.73;;;;;;;;;;5054654;28;20028;-79
2023/04/25 12:51:13;;;;;;;9.43;1.83;;;;;;;;;;5070837;28;20097;-78
2023/04/25 12:53:40;;;;;;;3.83;1.20;;;;;;;;;;5052720;28;20029;-78
2023/04/25 12:56:07;;;;;;;10.00;2.23;;;;;;;;;;5072667;28;20036;-79
2023/04/25 12:58:36;;;;;;;10.90;2.23;;;;;;;;;;5071695;28;20330;-80
2023/04/25 13:01:05;;;;;;;9.80;2.10;;;;;;;;;;5054838;28;20052;-78
2023/04/25 13:03:31;;;;;;;7.07;1.67;;;;;;;;;;5050317;28;20029;-79
2023/04/25 13:05:57;;;;;;;7.83;1.90;;;;;;;;;;5051547;28;20088;-78
2023/04/25 13:08:23;;;;;;;6.90;1.90;;;;;;;;;;5072207;28;20037;-78
2023/04/25 13:10:49;;;;;;;4.27;1.63;;;;;;;;;;5050353;28;20029;-79
2023/04/25 13:13:18;;;;;;;5.33;1.50;;;;;;;;;;5055287;28;20131;-77
2023/04/25 13:15:46;;;;;;;2.87;1.20;;;;;;;;;;5054451;28;20092;-80
2023/04/25 13:18:12;;;;;;;3.97;1.40;;;;;;;;;;5053066;28;20025;-80
2023/04/25 13:20:38;;;;;;;8.47;1.07;;;;;;;;;;5071745;28;20040;-79
2023/04/25 13:23:04;;;;;;;2.10;1.03;;;;;;;;;;5070161;28;20180;-78
2023/04/25 13:25:35;;;;;;;4.53;1.33;;;;;;;;;;5047718;28;20037;-79
2023/04/25 13:28:02;;;;;;;5.00;1.20;;;;;;;;;;5054045;28;20034;-78
2023/04/25 13:30:28;;;;;;;2.97;1.00;;;;;;;;;;5070801;28;20606;-78
2023/04/25 13:33:04;;;;;;;5.53;0.90;;;;;;;;;;5072422;28;20029;-77
2023/04/25 13:35:30;;;;;;;7.27;1.60;;;;;;;;;;5051476;28;20025;-79
2023/04/25 13:38:00;;;;;;;1.73;0.87;;;;;;;;;;5055090;28;20050;-79
2023/04/25 13:40:28;;;;;;;3.33;1.23;;;;;;;;;;5052812;28;20012;-79
2023/04/25 13:43:02;;;;;;;5.60;1.37;;;;;;;;;;5070518;28;20037;-80
2023/04/25 13:45:45;;;;;;;6.40;1.13;;;;;;;;;;5050865;28;20029;-82
2023/04/25 13:48:13;;;;;;;5.23;1.63;;;;;;;;;;5051967;28;20033;-77
2023/04/25 13:50:49;;;;;;;5.53;1.83;;;;;;;;;;5072164;28;20033;-80
2023/04/25 13:53:36;;;;;;;5.37;1.17;;;;;;;;;;5056708;28;20025;-77
2023/04/25 13:56:04;;;;;;;3.23;1.00;;;;;;;;;;5070596;28;20013;-77
2023/04/25 13:58:32;;;;;;;1.60;0.70;;;;;;;;;;5071570;28;20013;-80
2023/04/25 14:01:06;;;;;;;8.63;1.77;;;;;;;;;;5071092;28;20071;-79
2023/04/25 14:03:32;;;;;;;4.10;1.20;;;;;;;;;;5072042;28;20029;-79
2023/04/25 14:06:01;;;;;;;4.33;1.23;;;;;;;;;;5073091;28;20472;-78
2023/04/25 14:08:35;;;;;;;2.30;0.80;;;;;;;;;;5055510;28;20018;-79
2023/04/25 14:11:01;;;;;;;6.83;1.53;;;;;;;;;;5071340;28;20018;-77
2023/04/25 14:13:29;;;;;;;7.13;1.67;;;;;;;;;;5070062;28;20033;-78
2023/04/25 14:15:56;;;;;;;3.07;1.13;;;;;;;;;;5068826;28;20025;-80
2023/04/25 14:18:29;;;;;;;6.10;1.30;;;;;;;;;;5068886;28;20036;-80
2023/04/25 14:20:55;;;;;;;2.30;0.77;;;;;;;;;;5051825;28;20017;-79
2023/04/25 14:23:21;;;;;;;3.13;0.80;;;;;;;;;;5072042;28;20052;-81
2023/04/25 14:26:00;;;;;;;6.17;0.73;;;;;;;;;;5051831;28;20021;-81
2023/04/25 14:28:26;;;;;;;7.73;1.27;;;;;;;;;;5071844;28;20033;-78
2023/04/25 14:31:08;;;;;;;4.87;0.90;;;;;;;;;;5072244;28;20009;-79
2023/04/25 14:33:41;;;;;;;4.03;1.35;;;;;;;;;;5071336;28;20029;-77
2023/04/25 14:36:07;;;;;;;;;;;;;;;;;;5070449;28;20023;-79
2023/04/25 14:38:35;;;;;;;4.47;1.07;;;;;;;;;;5068983;28;19940;-78
2023/04/25 14:41:02;;;;;;;4.77;1.10;;;;;;;;;;5052373;28;20017;-79
2023/04/25 14:43:30;;;;;;;3.57;1.43;;;;;;;;;;5052194;28;20025;-79
2023/04/25 14:45:56;;;;;;;2.70;0.83;;;;;;;;;;5070076;28;20060;-77
2023/04/25 14:48:25;;;;;;;6.97;1.30;;;;;;;;;;5047246;28;20060;-77